sensor_id;sensor_type;location;lat;lon;timestamp;pressure;altitude;pressure_sealevel;temperature;humidity
80103;BME280;69865;47.648;19.030;2023-08-06T00:00:15;99139.78;;;19.57;100.00
80103;BME280;69865;47.648;19.030;2023-08-06T00:00:53;99136.09;;;19.58;100.00
80103;BME280;69865;47.648;19.030;2023-08-06T00:01:28;99141.56;;;19.63;100.00
80103;BME280;69865;47.648;19.030;2023-08-06T00:02:00;99132.75;;;19.62;100.00
80103;BME280;69865;47.648;19.030;2023-08-06T00:02:33;99137.03;;;19.63;100.00
80103;BME280;69865;47.648;19.030;2023-08-06T00:03:07;99138.69;;;19.64;100.00
80103;BME280;69865;47.648;19.030;2023-08-06T00:03:41;99137.88;;;19.64;100.00
80103;BME280;69865;47.648;19.030;2023-08-06T00:04:14;99137.88;;;19.64;100.00
80103;BME280;69865;47.648;19.030;2023-08-06T00:04:46;99135.81;;;19.66;100.00
80103;BME280;69865;47.648;19.030;2023-08-06T00:05:19;99130.66;;;19.64;100.00
80103;BME280;69865;47.648;19.030;2023-08-06T00:05:53;99130.09;;;19.62;100.00
80103;BME280;69865;47.648;19.030;2023-08-06T00:06:25;99136.84;;;19.65;100.00
80103;BME280;69865;47.648;19.030;2023-08-06T00:06:58;99130.66;;;19.64;100.00
80103;BME280;69865;47.648;19.030;2023-08-06T00:07:31;99131.28;;;19.66;100.00
80103;BME280;69865;47.648;19.030;2023-08-06T00:08:06;99132.06;;;19.67;100.00
80103;BME280;69865;47.648;19.030;2023-08-06T00:08:39;99130.22;;;19.67;100.00
80103;BME280;69865;47.648;19.030;2023-08-06T00:09:12;99129.84;;;19.64;100.00
80103;BME280;69865;47.648;19.030;2023-08-06T00:09:44;99126.81;;;19.60;100.00
80103;BME280;69865;47.648;19.030;2023-08-06T00:10:17;99123.31;;;19.60;100.00
80103;BME280;69865;47.648;19.030;2023-08-06T00:10:50;99129.47;;;19.60;100.00
80103;BME280;69865;47.648;19.030;2023-08-06T00:11:23;99133.19;;;19.59;100.00
80103;BME280;69865;47.648;19.030;2023-08-06T00:11:56;99130.75;;;19.58;100.00
80103;BME280;69865;47.648;19.030;2023-08-06T00:12:30;99134.81;;;19.60;100.00
80103;BME280;69865;47.648;19.030;2023-08-06T00:13:02;99136.66;;;19.60;100.00
80103;BME280;69865;47.648;19.030;2023-08-06T00:13:36;99136.66;;;19.60;100.00
80103;BME280;69865;47.648;19.030;2023-08-06T00:14:10;99136.66;;;19.60;100.00
80103;BME280;69865;47.648;19.030;2023-08-06T00:14:42;99140.16;;;19.60;100.00
80103;BME280;69865;47.648;19.030;2023-08-06T00:15:15;99144.25;;;19.63;100.00
80103;BME280;69865;47.648;19.030;2023-08-06T00:15:48;99140.78;;;19.62;100.00
80103;BME280;69865;47.648;19.030;2023-08-06T00:16:21;99145.88;;;19.64;100.00
80103;BME280;69865;47.648;19.030;2023-08-06T00:16:56;99145.69;;;19.65;100.00
80103;BME280;69865;47.648;19.030;2023-08-06T00:17:29;99151.84;;;19.66;100.00
80103;BME280;69865;47.648;19.030;2023-08-06T00:18:05;99149.59;;;19.63;100.00
80103;BME280;69865;47.648;19.030;2023-08-06T00:18:39;99147.31;;;19.66;100.00
80103;BME280;69865;47.648;19.030;2023-08-06T00:19:12;99151.59;;;19.67;100.00
80103;BME280;69865;47.648;19.030;2023-08-06T00:19:45;99154.28;;;19.67;100.00
80103;BME280;69865;47.648;19.030;2023-08-06T00:20:19;99143.38;;;19.69;100.00
80103;BME280;69865;47.648;19.030;2023-08-06T00:20:52;99148.94;;;19.67;100.00
80103;BME280;69865;47.648;19.030;2023-08-06T00:21:25;99156.72;;;19.69;100.00
80103;BME280;69865;47.648;19.030;2023-08-06T00:22:01;99152.22;;;19.69;100.00
80103;BME280;69865;47.648;19.030;2023-08-06T00:22:36;99151.19;;;19.71;100.00
80103;BME280;69865;47.648;19.030;2023-08-06T00:23:09;99149.16;;;19.66;100.00
80103;BME280;69865;47.648;19.030;2023-08-06T00:23:59;99151.00;;;19.65;100.00
80103;BME280;69865;47.648;19.030;2023-08-06T00:24:35;99161.69;;;19.65;100.00
80103;BME280;69865;47.648;19.030;2023-08-06T00:25:09;99156.34;;;19.65;100.00
80103;BME280;69865;47.648;19.030;2023-08-06T00:25:41;99160.44;;;19.68;100.00
80103;BME280;69865;47.648;19.030;2023-08-06T00:26:13;99157.56;;;19.69;100.00
80103;BME280;69865;47.648;19.030;2023-08-06T00:26:46;99149.16;;;19.66;100.00
80103;BME280;69865;47.648;19.030;2023-08-06T00:27:18;99161.03;;;19.70;100.00
80103;BME280;69865;47.648;19.030;2023-08-06T00:27:51;99165.56;;;19.69;100.00
80103;BME280;69865;47.648;19.030;2023-08-06T00:28:24;99155.69;;;19.70;100.00
80103;BME280;69865;47.648;19.030;2023-08-06T00:28:56;99160.22;;;19.69;100.00
80103;BME280;69865;47.648;19.030;2023-08-06T00:29:29;99166.59;;;19.68;100.00
80103;BME280;69865;47.648;19.030;2023-08-06T00:30:02;99169.06;;;19.70;100.00
80103;BME280;69865;47.648;19.030;2023-08-06T00:30:35;99161.69;;;19.65;100.00
80103;BME280;69865;47.648;19.030;2023-08-06T00:31:08;99165.03;;;19.61;100.00
80103;BME280;69865;47.648;19.030;2023-08-06T00:31:40;99168.28;;;19.63;100.00
80103;BME280;69865;47.648;19.030;2023-08-06T00:32:13;99154.34;;;19.61;100.00
80103;BME280;69865;47.648;19.030;2023-08-06T00:32:48;99162.56;;;19.59;100.00
80103;BME280;69865;47.648;19.030;2023-08-06T00:33:21;99160.94;;;19.58;100.00
80103;BME280;69865;47.648;19.030;2023-08-06T00:33:53;99162.56;;;19.59;100.00
80103;BME280;69865;47.648;19.030;2023-08-06T00:34:27;99161.75;;;19.59;100.00
80103;BME280;69865;47.648;19.030;2023-08-06T00:34:59;99161.97;;;19.57;100.00
80103;BME280;69865;47.648;19.030;2023-08-06T00:35:32;99167.31;;;19.57;100.00
80103;BME280;69865;47.648;19.030;2023-08-06T00:36:04;99157.88;;;19.55;100.00
80103;BME280;69865;47.648;19.030;2023-08-06T00:36:37;99156.03;;;19.55;100.00
80103;BME280;69865;47.648;19.030;2023-08-06T00:37:12;99162.81;;;19.58;100.00
80103;BME280;69865;47.648;19.030;2023-08-06T00:37:45;99163.22;;;19.55;100.00
80103;BME280;69865;47.648;19.030;2023-08-06T00:38:20;99163.44;;;19.53;100.00
80103;BME280;69865;47.648;19.030;2023-08-06T00:38:52;99160.63;;;19.48;100.00
80103;BME280;69865;47.648;19.030;2023-08-06T00:39:24;99161.22;;;19.50;100.00
80103;BME280;69865;47.648;19.030;2023-08-06T00:39:57;99156.47;;;19.52;100.00
80103;BME280;69865;47.648;19.030;2023-08-06T00:40:29;99162.44;;;19.54;100.00
80103;BME280;69865;47.648;19.030;2023-08-06T00:41:01;99155.66;;;19.52;100.00
80103;BME280;69865;47.648;19.030;2023-08-06T00:41:33;99156.47;;;19.52;100.00
80103;BME280;69865;47.648;19.030;2023-08-06T00:42:05;99148.91;;;19.49;100.00
80103;BME280;69865;47.648;19.030;2023-08-06T00:42:37;99152.53;;;19.55;100.00
80103;BME280;69865;47.648;19.030;2023-08-06T00:43:09;99149.06;;;19.54;100.00
80103;BME280;69865;47.648;19.030;2023-08-06T00:43:41;99150.31;;;19.52;100.00
80103;BME280;69865;47.648;19.030;2023-08-06T00:44:14;99152.41;;;19.50;100.00
80103;BME280;69865;47.648;19.030;2023-08-06T00:44:46;99144.38;;;19.50;100.00
80103;BME280;69865;47.648;19.030;2023-08-06T00:45:18;99143.31;;;19.51;100.00
80103;BME280;69865;47.648;19.030;2023-08-06T00:45:50;99143.56;;;19.49;100.00
80103;BME280;69865;47.648;19.030;2023-08-06T00:46:22;99139.03;;;19.50;100.00
80103;BME280;69865;47.648;19.030;2023-08-06T00:46:55;99131.03;;;19.50;100.00
80103;BME280;69865;47.648;19.030;2023-08-06T00:47:29;99133.91;;;19.48;100.00
80103;BME280;69865;47.648;19.030;2023-08-06T00:48:02;99130.66;;;19.40;100.00
80103;BME280;69865;47.648;19.030;2023-08-06T00:48:35;99124.56;;;19.33;100.00
80103;BME280;69865;47.648;19.030;2023-08-06T00:49:08;99131.56;;;19.34;100.00
80103;BME280;69865;47.648;19.030;2023-08-06T00:49:40;99125.00;;;19.30;100.00
80103;BME280;69865;47.648;19.030;2023-08-06T00:50:13;99118.41;;;19.32;100.00
80103;BME280;69865;47.648;19.030;2023-08-06T00:50:45;99121.91;;;19.33;100.00
80103;BME280;69865;47.648;19.030;2023-08-06T00:51:17;99111.50;;;19.24;100.00
80103;BME280;69865;47.648;19.030;2023-08-06T00:51:49;99111.50;;;19.24;100.00
80103;BME280;69865;47.648;19.030;2023-08-06T00:52:23;99110.47;;;19.26;100.00
80103;BME280;69865;47.648;19.030;2023-08-06T00:52:56;99116.25;;;19.22;100.00
80103;BME280;69865;47.648;19.030;2023-08-06T00:53:28;99115.84;;;19.19;100.00
80103;BME280;69865;47.648;19.030;2023-08-06T00:54:01;99111.69;;;19.23;100.00
80103;BME280;69865;47.648;19.030;2023-08-06T00:54:34;99107.19;;;19.23;100.00
80103;BME280;69865;47.648;19.030;2023-08-06T00:55:08;99100.44;;;19.21;100.00
80103;BME280;69865;47.648;19.030;2023-08-06T00:55:41;99103.69;;;19.23;100.00
80103;BME280;69865;47.648;19.030;2023-08-06T00:56:15;99094.63;;;19.06;100.00
80103;BME280;69865;47.648;19.030;2023-08-06T00:56:47;99101.16;;;19.10;100.00
80103;BME280;69865;47.648;19.030;2023-08-06T00:57:24;99105.66;;;19.09;100.00
80103;BME280;69865;47.648;19.030;2023-08-06T00:57:57;99103.81;;;19.10;100.00
80103;BME280;69865;47.648;19.030;2023-08-06T00:58:29;99106.63;;;19.15;100.00
80103;BME280;69865;47.648;19.030;2023-08-06T00:59:02;99110.19;;;19.09;100.00
80103;BME280;69865;47.648;19.030;2023-08-06T00:59:35;99106.97;;;19.00;100.00
80103;BME280;69865;47.648;19.030;2023-08-06T01:00:08;99109.47;;;18.95;100.00
80103;BME280;69865;47.648;19.030;2023-08-06T01:00:41;99114.41;;;18.92;100.00
80103;BME280;69865;47.648;19.030;2023-08-06T01:01:14;99102.13;;;18.91;100.00
80103;BME280;69865;47.648;19.030;2023-08-06T01:01:48;99105.59;;;18.91;100.00
80103;BME280;69865;47.648;19.030;2023-08-06T01:02:20;99101.06;;;18.92;100.00
80103;BME280;69865;47.648;19.030;2023-08-06T01:02:54;99102.91;;;18.91;100.00
80103;BME280;69865;47.648;19.030;2023-08-06T01:03:26;99101.31;;;18.90;100.00
80103;BME280;69865;47.648;19.030;2023-08-06T01:04:01;99099.28;;;18.86;100.00
80103;BME280;69865;47.648;19.030;2023-08-06T01:04:36;99096.63;;;18.86;100.00
80103;BME280;69865;47.648;19.030;2023-08-06T01:05:08;99095.78;;;18.85;100.00
80103;BME280;69865;47.648;19.030;2023-08-06T01:05:40;99095.97;;;18.90;100.00
80103;BME280;69865;47.648;19.030;2023-08-06T01:06:12;99088.78;;;18.91;100.00
80103;BME280;69865;47.648;19.030;2023-08-06T01:06:48;99089.81;;;18.90;100.00
80103;BME280;69865;47.648;19.030;2023-08-06T01:07:33;99093.72;;;18.87;100.00
80103;BME280;69865;47.648;19.030;2023-08-06T01:08:16;99091.88;;;18.88;100.00
80103;BME280;69865;47.648;19.030;2023-08-06T01:08:58;99085.56;;;18.82;100.00
80103;BME280;69865;47.648;19.030;2023-08-06T01:09:44;99081.31;;;18.74;100.00
80103;BME280;69865;47.648;19.030;2023-08-06T01:10:35;99084.19;;;18.73;100.00
80103;BME280;69865;47.648;19.030;2023-08-06T01:11:21;99076.78;;;18.75;100.00
80103;BME280;69865;47.648;19.030;2023-08-06T01:12:06;99079.03;;;18.78;100.00
80103;BME280;69865;47.648;19.030;2023-08-06T01:12:47;99078.41;;;18.76;100.00
80103;BME280;69865;47.648;19.030;2023-08-06T01:13:27;99081.50;;;18.73;100.00
80103;BME280;69865;47.648;19.030;2023-08-06T01:14:15;99081.91;;;18.76;100.00
80103;BME280;69865;47.648;19.030;2023-08-06T01:14:57;99080.50;;;18.67;100.00
80103;BME280;69865;47.648;19.030;2023-08-06T01:15:36;99088.94;;;18.71;100.00
80103;BME280;69865;47.648;19.030;2023-08-06T01:16:11;99081.38;;;18.61;100.00
80103;BME280;69865;47.648;19.030;2023-08-06T01:16:46;99085.25;;;18.65;100.00
80103;BME280;69865;47.648;19.030;2023-08-06T01:17:20;99084.00;;;18.68;100.00
80103;BME280;69865;47.648;19.030;2023-08-06T01:17:53;99082.97;;;18.69;100.00
80103;BME280;69865;47.648;19.030;2023-08-06T01:18:26;99091.59;;;18.71;100.00
80103;BME280;69865;47.648;19.030;2023-08-06T01:18:58;99091.97;;;18.74;100.00
80103;BME280;69865;47.648;19.030;2023-08-06T01:19:30;99085.00;;;18.73;100.00
80103;BME280;69865;47.648;19.030;2023-08-06T01:20:03;99085.06;;;18.67;100.00
80103;BME280;69865;47.648;19.030;2023-08-06T01:20:36;99084.00;;;18.68;100.00
80103;BME280;69865;47.648;19.030;2023-08-06T01:21:09;99081.13;;;18.69;100.00
80103;BME280;69865;47.648;19.030;2023-08-06T01:21:41;99085.22;;;18.72;100.00
80103;BME280;69865;47.648;19.030;2023-08-06T01:22:13;99087.66;;;18.73;100.00
80103;BME280;69865;47.648;19.030;2023-08-06T01:22:45;99086.91;;;18.66;100.00
80103;BME280;69865;47.648;19.030;2023-08-06T01:23:18;99084.38;;;18.71;100.00
80103;BME280;69865;47.648;19.030;2023-08-06T01:23:51;99079.72;;;18.67;100.00
80103;BME280;69865;47.648;19.030;2023-08-06T01:24:23;99080.50;;;18.67;100.00
80103;BME280;69865;47.648;19.030;2023-08-06T01:24:55;99079.50;;;18.68;100.00
80103;BME280;69865;47.648;19.030;2023-08-06T01:25:34;99072.31;;;18.69;100.00
80103;BME280;69865;47.648;19.030;2023-08-06T01:26:14;99073.72;;;18.71;100.00
80103;BME280;69865;47.648;19.030;2023-08-06T01:26:54;99082.59;;;18.65;100.00
80103;BME280;69865;47.648;19.030;2023-08-06T01:27:35;99074.78;;;18.64;100.00
80103;BME280;69865;47.648;19.030;2023-08-06T01:28:17;99069.47;;;18.64;100.00
80103;BME280;69865;47.648;19.030;2023-08-06T01:28:56;99078.09;;;18.66;100.00
80103;BME280;69865;47.648;19.030;2023-08-06T01:29:35;99067.66;;;18.58;100.00
80103;BME280;69865;47.648;19.030;2023-08-06T01:30:12;99065.00;;;18.58;100.00
80103;BME280;69865;47.648;19.030;2023-08-06T01:30:47;99073.97;;;18.63;100.00
80103;BME280;69865;47.648;19.030;2023-08-06T01:31:26;99070.94;;;18.60;100.00
80103;BME280;69865;47.648;19.030;2023-08-06T01:31:59;99065.19;;;18.63;100.00
80103;BME280;69865;47.648;19.030;2023-08-06T01:32:34;99068.25;;;18.60;100.00
80103;BME280;69865;47.648;19.030;2023-08-06T01:33:11;99059.44;;;18.59;100.00
80103;BME280;69865;47.648;19.030;2023-08-06T01:33:48;99059.44;;;18.59;100.00
80103;BME280;69865;47.648;19.030;2023-08-06T01:34:23;99063.53;;;18.62;100.00
80103;BME280;69865;47.648;19.030;2023-08-06T01:34:56;99055.75;;;18.60;100.00
80103;BME280;69865;47.648;19.030;2023-08-06T01:35:32;99058.03;;;18.57;100.00
80103;BME280;69865;47.648;19.030;2023-08-06T01:36:06;99060.25;;;18.60;100.00
80103;BME280;69865;47.648;19.030;2023-08-06T01:36:40;99061.53;;;18.57;100.00
80103;BME280;69865;47.648;19.030;2023-08-06T01:37:12;99060.91;;;18.55;100.00
80103;BME280;69865;47.648;19.030;2023-08-06T01:37:46;99057.00;;;18.51;100.00
80103;BME280;69865;47.648;19.030;2023-08-06T01:38:18;99059.66;;;18.51;100.00
80103;BME280;69865;47.648;19.030;2023-08-06T01:38:51;99056.81;;;18.53;100.00
80103;BME280;69865;47.648;19.030;2023-08-06T01:39:24;99055.38;;;18.57;100.00
80103;BME280;69865;47.648;19.030;2023-08-06T01:39:56;99056.56;;;18.61;100.00
80103;BME280;69865;47.648;19.030;2023-08-06T01:40:29;99055.31;;;18.63;100.00
80103;BME280;69865;47.648;19.030;2023-08-06T01:41:01;99050.38;;;18.67;100.00
80103;BME280;69865;47.648;19.030;2023-08-06T01:41:33;99053.84;;;18.67;100.00
80103;BME280;69865;47.648;19.030;2023-08-06T01:42:06;99055.47;;;18.68;100.00
80103;BME280;69865;47.648;19.030;2023-08-06T01:42:39;99052.00;;;18.68;100.00
80103;BME280;69865;47.648;19.030;2023-08-06T01:43:11;99049.97;;;18.63;100.00
80103;BME280;69865;47.648;19.030;2023-08-06T01:43:44;99050.38;;;18.67;100.00
80103;BME280;69865;47.648;19.030;2023-08-06T01:44:16;99048.75;;;18.66;100.00
80103;BME280;69865;47.648;19.030;2023-08-06T01:44:48;99052.00;;;18.68;100.00
80103;BME280;69865;47.648;19.030;2023-08-06T01:45:21;99054.47;;;18.69;100.00
80103;BME280;69865;47.648;19.030;2023-08-06T01:45:53;99051.78;;;18.69;100.00
80103;BME280;69865;47.648;19.030;2023-08-06T01:46:25;99047.72;;;18.67;100.00
80103;BME280;69865;47.648;19.030;2023-08-06T01:46:57;99052.00;;;18.68;100.00
80103;BME280;69865;47.648;19.030;2023-08-06T01:47:29;99051.78;;;18.69;100.00
80103;BME280;69865;47.648;19.030;2023-08-06T01:48:01;99051.19;;;18.67;100.00
80103;BME280;69865;47.648;19.030;2023-08-06T01:48:34;99048.31;;;18.69;100.00
80103;BME280;69865;47.648;19.030;2023-08-06T01:49:06;99043.78;;;18.69;100.00
80103;BME280;69865;47.648;19.030;2023-08-06T01:49:38;99043.78;;;18.69;100.00
80103;BME280;69865;47.648;19.030;2023-08-06T01:50:10;99040.31;;;18.69;100.00
80103;BME280;69865;47.648;19.030;2023-08-06T01:50:42;99036.81;;;18.68;100.00
80103;BME280;69865;47.648;19.030;2023-08-06T01:51:16;99042.75;;;18.70;100.00
80103;BME280;69865;47.648;19.030;2023-08-06T01:51:48;99044.22;;;18.66;100.00
80103;BME280;69865;47.648;19.030;2023-08-06T01:52:21;99038.91;;;18.66;100.00
80103;BME280;69865;47.648;19.030;2023-08-06T01:52:53;99040.31;;;18.69;100.00
80103;BME280;69865;47.648;19.030;2023-08-06T01:53:25;99042.16;;;18.68;100.00
80103;BME280;69865;47.648;19.030;2023-08-06T01:53:57;99039.91;;;18.65;100.00
80103;BME280;69865;47.648;19.030;2023-08-06T01:54:29;99039.75;;;18.60;100.00
80103;BME280;69865;47.648;19.030;2023-08-06T01:55:01;99034.66;;;18.59;100.00
80103;BME280;69865;47.648;19.030;2023-08-06T01:55:34;99038.72;;;18.61;100.00
80103;BME280;69865;47.648;19.030;2023-08-06T01:56:06;99040.19;;;18.57;100.00
80103;BME280;69865;47.648;19.030;2023-08-06T01:56:38;99033.59;;;18.60;100.00
80103;BME280;69865;47.648;19.030;2023-08-06T01:57:10;99039.53;;;18.62;100.00
80103;BME280;69865;47.648;19.030;2023-08-06T01:57:42;99045.06;;;18.60;100.00
80103;BME280;69865;47.648;19.030;2023-08-06T01:58:14;99022.91;;;18.60;100.00
80103;BME280;69865;47.648;19.030;2023-08-06T01:58:46;99033.59;;;18.60;100.00
80103;BME280;69865;47.648;19.030;2023-08-06T01:59:18;99032.13;;;18.64;100.00
80103;BME280;69865;47.648;19.030;2023-08-06T01:59:50;99027.44;;;18.59;100.00
80103;BME280;69865;47.648;19.030;2023-08-06T02:00:22;99023.81;;;18.54;100.00
80103;BME280;69865;47.648;19.030;2023-08-06T02:00:54;99030.09;;;18.59;100.00
80103;BME280;69865;47.648;19.030;2023-08-06T02:01:27;99025.59;;;18.60;100.00
80103;BME280;69865;47.648;19.030;2023-08-06T02:01:59;99029.13;;;18.54;100.00
80103;BME280;69865;47.648;19.030;2023-08-06T02:02:31;99023.38;;;18.57;100.00
80103;BME280;69865;47.648;19.030;2023-08-06T02:03:03;99026.03;;;18.57;100.00
80103;BME280;69865;47.648;19.030;2023-08-06T02:03:35;99019.88;;;18.56;100.00
80103;BME280;69865;47.648;19.030;2023-08-06T02:04:07;99017.22;;;18.56;100.00
80103;BME280;69865;47.648;19.030;2023-08-06T02:04:39;99023.16;;;18.58;100.00
80103;BME280;69865;47.648;19.030;2023-08-06T02:05:11;99014.91;;;18.60;100.00
80103;BME280;69865;47.648;19.030;2023-08-06T02:05:43;99013.69;;;18.62;100.00
80103;BME280;69865;47.648;19.030;2023-08-06T02:06:17;99014.53;;;18.56;100.00
80103;BME280;69865;47.648;19.030;2023-08-06T02:06:49;99014.16;;;18.53;100.00
80103;BME280;69865;47.648;19.030;2023-08-06T02:07:21;99015.38;;;18.50;100.00
80103;BME280;69865;47.648;19.030;2023-08-06T02:07:53;99015.19;;;18.52;100.00
80103;BME280;69865;47.648;19.030;2023-08-06T02:08:25;99004.53;;;18.52;100.00
80103;BME280;69865;47.648;19.030;2023-08-06T02:08:58;99005.53;;;18.51;100.00
80103;BME280;69865;47.648;19.030;2023-08-06T02:09:31;98996.69;;;18.57;100.00
80103;BME280;69865;47.648;19.030;2023-08-06T02:10:03;99009.81;;;18.58;100.00
80103;BME280;69865;47.648;19.030;2023-08-06T02:10:36;99005.50;;;18.57;100.00
80103;BME280;69865;47.648;19.030;2023-08-06T02:11:08;99001.44;;;18.55;100.00
80103;BME280;69865;47.648;19.030;2023-08-06T02:11:40;99005.34;;;18.52;100.00
80103;BME280;69865;47.648;19.030;2023-08-06T02:12:12;99001.22;;;18.56;100.00
80103;BME280;69865;47.648;19.030;2023-08-06T02:12:44;99004.69;;;18.57;100.00
80103;BME280;69865;47.648;19.030;2023-08-06T02:13:16;99001.22;;;18.50;100.00
80103;BME280;69865;47.648;19.030;2023-08-06T02:13:48;99001.00;;;18.51;100.00
80103;BME280;69865;47.648;19.030;2023-08-06T02:14:20;98998.78;;;18.48;100.00
80103;BME280;69865;47.648;19.030;2023-08-06T02:14:52;99002.47;;;18.47;100.00
80103;BME280;69865;47.648;19.030;2023-08-06T02:15:24;99003.50;;;18.53;100.00
80103;BME280;69865;47.648;19.030;2023-08-06T02:15:56;98996.31;;;18.53;100.00
80103;BME280;69865;47.648;19.030;2023-08-06T02:16:28;98993.00;;;18.51;100.00
80103;BME280;69865;47.648;19.030;2023-08-06T02:17:00;98998.78;;;18.48;100.00
80103;BME280;69865;47.648;19.030;2023-08-06T02:17:32;98994.09;;;18.44;100.00
80103;BME280;69865;47.648;19.030;2023-08-06T02:18:05;99004.38;;;18.40;100.00
80103;BME280;69865;47.648;19.030;2023-08-06T02:18:37;99001.50;;;18.42;100.00
80103;BME280;69865;47.648;19.030;2023-08-06T02:19:09;99000.03;;;18.46;100.00
80103;BME280;69865;47.648;19.030;2023-08-06T02:19:41;98994.91;;;18.44;100.00
80103;BME280;69865;47.648;19.030;2023-08-06T02:20:13;98990.22;;;18.40;100.00
80103;BME280;69865;47.648;19.030;2023-08-06T02:20:55;98994.91;;;18.44;100.00
80103;BME280;69865;47.648;19.030;2023-08-06T02:21:29;98996.53;;;18.45;100.00
80103;BME280;69865;47.648;19.030;2023-08-06T02:22:01;98996.75;;;18.44;100.00
80103;BME280;69865;47.648;19.030;2023-08-06T02:22:33;98993.28;;;18.43;100.00
80103;BME280;69865;47.648;19.030;2023-08-06T02:23:05;98996.97;;;18.42;100.00
80103;BME280;69865;47.648;19.030;2023-08-06T02:23:37;98994.75;;;18.39;100.00
80103;BME280;69865;47.648;19.030;2023-08-06T02:24:10;98993.69;;;18.40;100.00
80103;BME280;69865;47.648;19.030;2023-08-06T02:24:42;99003.78;;;18.38;100.00
80103;BME280;69865;47.648;19.030;2023-08-06T02:25:14;98997.25;;;18.34;100.00
80103;BME280;69865;47.648;19.030;2023-08-06T02:25:46;98988.59;;;18.39;100.00
80103;BME280;69865;47.648;19.030;2023-08-06T02:26:18;98997.63;;;18.38;100.00
80103;BME280;69865;47.648;19.030;2023-08-06T02:26:50;99000.72;;;18.35;100.00
80103;BME280;69865;47.648;19.030;2023-08-06T02:27:23;98994.78;;;18.33;100.00
80103;BME280;69865;47.648;19.030;2023-08-06T02:27:55;98994.97;;;18.38;100.00
80103;BME280;69865;47.648;19.030;2023-08-06T02:28:27;98989.44;;;18.39;100.00
80103;BME280;69865;47.648;19.030;2023-08-06T02:28:59;98988.81;;;18.37;100.00
80103;BME280;69865;47.648;19.030;2023-08-06T02:29:31;98990.22;;;18.40;100.00
80103;BME280;69865;47.648;19.030;2023-08-06T02:30:05;98991.66;;;18.42;100.00
80103;BME280;69865;47.648;19.030;2023-08-06T02:30:37;98986.91;;;18.44;100.00
80103;BME280;69865;47.648;19.030;2023-08-06T02:31:09;98983.22;;;18.45;100.00
80103;BME280;69865;47.648;19.030;2023-08-06T02:31:41;98983.84;;;18.41;100.00
80103;BME280;69865;47.648;19.030;2023-08-06T02:32:13;98985.72;;;18.40;100.00
80103;BME280;69865;47.648;19.030;2023-08-06T02:32:45;98983.66;;;18.42;100.00
80103;BME280;69865;47.648;19.030;2023-08-06T02:33:17;98983.84;;;18.41;100.00
80103;BME280;69865;47.648;19.030;2023-08-06T02:33:49;98979.78;;;18.38;100.00
80103;BME280;69865;47.648;19.030;2023-08-06T02:34:21;98980.00;;;18.37;100.00
80103;BME280;69865;47.648;19.030;2023-08-06T02:34:54;98977.31;;;18.37;100.00
80103;BME280;69865;47.648;19.030;2023-08-06T02:35:26;98977.31;;;18.37;100.00
80103;BME280;69865;47.648;19.030;2023-08-06T02:36:04;98978.75;;;18.39;100.00
80103;BME280;69865;47.648;19.030;2023-08-06T02:36:38;98978.97;;;18.38;100.00
80103;BME280;69865;47.648;19.030;2023-08-06T02:37:10;98977.94;;;18.39;100.00
80103;BME280;69865;47.648;19.030;2023-08-06T02:37:42;98980.00;;;18.37;100.00
80103;BME280;69865;47.648;19.030;2023-08-06T02:38:14;98979.16;;;18.36;100.00
80103;BME280;69865;47.648;19.030;2023-08-06T02:38:47;98980.22;;;18.35;100.00
80103;BME280;69865;47.648;19.030;2023-08-06T02:39:19;98977.31;;;18.37;100.00
80103;BME280;69865;47.648;19.030;2023-08-06T02:39:51;98972.59;;;18.39;100.00
80103;BME280;69865;47.648;19.030;2023-08-06T02:40:23;98974.66;;;18.37;100.00
80103;BME280;69865;47.648;19.030;2023-08-06T02:40:55;98971.19;;;18.36;100.00
80103;BME280;69865;47.648;19.030;2023-08-06T02:41:27;98967.47;;;18.37;100.00
80103;BME280;69865;47.648;19.030;2023-08-06T02:41:59;98974.84;;;18.42;100.00
80103;BME280;69865;47.648;19.030;2023-08-06T02:42:31;98971.16;;;18.43;100.00
80103;BME280;69865;47.648;19.030;2023-08-06T02:43:03;98974.63;;;18.43;100.00
80103;BME280;69865;47.648;19.030;2023-08-06T02:43:35;98973.00;;;18.42;100.00
80103;BME280;69865;47.648;19.030;2023-08-06T02:44:08;98974.63;;;18.43;100.00
80103;BME280;69865;47.648;19.030;2023-08-06T02:44:40;98973.56;;;18.44;100.00
80103;BME280;69865;47.648;19.030;2023-08-06T02:45:12;98973.13;;;18.47;100.00
80103;BME280;69865;47.648;19.030;2023-08-06T02:45:44;98973.38;;;18.46;100.00
80103;BME280;69865;47.648;19.030;2023-08-06T02:46:16;98972.56;;;18.45;100.00
80103;BME280;69865;47.648;19.030;2023-08-06T02:46:48;98976.25;;;18.44;100.00
80103;BME280;69865;47.648;19.030;2023-08-06T02:47:20;98978.72;;;18.46;100.00
80103;BME280;69865;47.648;19.030;2023-08-06T02:47:52;98978.09;;;18.44;100.00
80103;BME280;69865;47.648;19.030;2023-08-06T02:48:25;98979.72;;;18.45;100.00
80103;BME280;69865;47.648;19.030;2023-08-06T02:48:57;98975.41;;;18.44;100.00
80103;BME280;69865;47.648;19.030;2023-08-06T02:49:29;98975.22;;;18.45;100.00
80103;BME280;69865;47.648;19.030;2023-08-06T02:50:01;98974.41;;;18.45;100.00
80103;BME280;69865;47.648;19.030;2023-08-06T02:50:37;98974.41;;;18.45;100.00
80103;BME280;69865;47.648;19.030;2023-08-06T02:51:09;98970.47;;;18.47;100.00
80103;BME280;69865;47.648;19.030;2023-08-06T02:51:44;98970.72;;;18.46;100.00
80103;BME280;69865;47.648;19.030;2023-08-06T02:52:16;98966.63;;;18.43;100.00
80103;BME280;69865;47.648;19.030;2023-08-06T02:52:49;98969.50;;;18.42;100.00